Kezdőlap
METAR-TAF:

METAR-TAF

Repülőterek :

Moszkva, Oroszország

földrajzi szélesség: 55-30-42N, földrajzi hosszúság: 037-30-26E, magasság: 173 m

Jelenlegi meteorológiai megfigyelések

A jelentés 4 órával és 3 perccel ezelõtt készült, 23:00 UTC
Szélcsend
Hőmérséklet -20°C
Páratartalom 84%
Légköri nyomás 1019 hPa
Látótávolság 10 km, vagy több
felhőtlen 1500 m magasságban, és nincs gomolyfelhõ

METAR: UUMO 222300Z 00000MPS CAVOK M20/M22 Q1019 R26/410360 NOSIG RMK QFE749/0999

Idő: 06:03 (03:03 UTC)

Előrejelzés

A jelentés 10 órával és 16 perccel ezelõtt készült, 16:47 UTC
Az előrejelzés 22-én 18 óra UTC és 23-én 03 óra UTC között érvényes
Nyugat-délnyugati szél 10 kt
Látótávolság 10 km, vagy több

TAF: UUMO 221647Z 2218/2303 25005MPS 9999 NSC

Meteorológiai megfigyelések és előrejelzések több, mint 4000 repülőtéren (METAR és TAF jelentéseket).

A térképen piros és sárga pontok jelzik az elérhető meteorológiai állomásokat.

Mozgassa az egeret a pont fölött, hogy megjelenjen az állomás neve.

Azután kattintson az időjárási megfigyelések és előrejelzések megtekintéséhez.

A térkép megváltoztatása: kattintson a fekete keresztel jelölt zöld gombra ráközelítéshez, a vonallal jelölt zöld gombra távolításhoz, vagy a zöld nyilakra a szomszédos térképek eléréséhez.


METAR-TAF: